Time;durP1;ratioP1;P1;durP2;ratioP2;P2;SDS_P1;SDS_P2;PMS_P1;PMS_P2;Temp;Humidity;BMP_temperature;BMP_pressure;BME280_temperature;BME280_humidity;BME280_pressure;Samples;Min_cycle;Max_cycle;Signal;HPM_P1;HPM_P2
2021/12/25 00:00:25;;;;;;;;;;;;;;;18.83;64.09;100252.16;6216810;23;1078;-39
2021/12/25 00:02:51;;;;;;;;;;;;;;;18.76;64.15;100261.72;6217646;23;1014;-39
2021/12/25 00:05:18;;;;;;;;;;;;;;;18.86;63.87;100262.56;6216882;23;1179;-40
2021/12/25 00:07:45;;;;;;;;;;;;;;;18.82;64.20;100250.44;6216442;23;1379;-39
2021/12/25 00:10:11;;;;;;;;;;;;;;;18.83;63.53;100244.94;6216510;23;1896;-39
2021/12/25 00:12:38;;;;;;;;;;;;;;;18.78;64.21;100260.59;6216378;23;1077;-39
2021/12/25 00:15:07;;;;;;;;;;;;;;;18.79;64.01;100261.44;6216258;23;1122;-39
2021/12/25 00:17:35;;;;;;;;;;;;;;;18.72;63.93;100261.19;6215638;23;1201;-39
2021/12/25 00:20:02;;;;;;;;;;;;;;;18.71;64.15;100248.78;6216378;23;1098;-39
2021/12/25 00:22:28;;;;;;;;;;;;;;;18.72;64.14;100260.31;6216155;23;1142;-40
2021/12/25 00:24:55;;;;;;;;;;;;;;;18.75;64.30;100268.91;6216249;23;1086;-39
2021/12/25 00:27:41;;;;;;;;;;;;;;;18.76;63.87;100267.06;6215877;23;1122;-39
2021/12/25 00:30:15;;;;;;;;;;;;;;;18.82;63.70;100269.19;6216394;23;1934;-39
2021/12/25 00:32:57;;;;;;;;;;;;;;;18.78;63.77;100254.38;6216829;23;2009;-39
2021/12/25 00:35:24;;;;;;;;;;;;;;;18.83;63.65;100265.56;6216360;23;1099;-39
2021/12/25 00:37:50;;;;;;;;;;;;;;;18.79;63.58;100256.94;6216220;23;1221;-40
2021/12/25 00:40:18;;;;;;;;;;;;;;;18.84;64.13;100259.19;6216291;23;1088;-39
2021/12/25 00:42:45;;;;;;;;;;;;;;;18.92;63.16;100251.28;6216267;23;1064;-39
2021/12/25 00:45:11;;;;;;;;;;;;;;;18.87;63.58;100250.88;6216557;23;1075;-39
2021/12/25 00:47:38;;;;;;;;;;;;;;;18.83;63.75;100260.19;6216135;23;995;-39
2021/12/25 00:50:07;;;;;;;;;;;;;;;18.87;63.85;100258.91;6216741;23;1892;-40
2021/12/25 00:52:33;;;;;;;;;;;;;;;18.79;63.66;100264.13;6216352;23;1071;-40
2021/12/25 00:55:01;;;;;;;;;;;;;;;18.79;63.77;100256.94;6216305;23;1068;-40
2021/12/25 00:57:27;;;;;;;;;;;;;;;18.85;63.20;100251.00;6216242;23;1010;-39
2021/12/25 00:59:53;;;;;;;;;;;;;;;18.84;63.78;100248.47;6215960;23;1074;-39
2021/12/25 01:02:20;;;;;;;;;;;;;;;18.89;63.56;100254.25;6216281;23;1096;-40
2021/12/25 01:04:46;;;;;;;;;;;;;;;18.84;63.91;100243.09;6216629;23;1069;-39
2021/12/25 01:07:14;;;;;;;;;;;;;;;18.85;63.34;100251.00;6216308;23;1436;-39
2021/12/25 01:09:41;;;;;;;;;;;;;;;18.75;63.63;100243.97;6215864;23;1946;-39
2021/12/25 01:12:08;;;;;;;;;;;;;;;18.88;63.69;100252.56;6215529;23;1079;-39
2021/12/25 01:14:36;;;;;;;;;;;;;;;18.84;64.17;100248.47;6215577;23;1079;-39
2021/12/25 01:20:12;;;;;;;;;;;;;;;18.89;63.05;100240.84;6196134;23;879;-39
2021/12/25 01:30:59;;;;;;;;;;;;;;;18.87;63.08;100248.19;6215272;23;1928;-39
2021/12/25 01:33:49;;;;;;;;;;;;;;;18.95;63.33;100245.63;6215992;23;1064;-40
2021/12/25 01:39:19;;;;;;;;;;;;;;;18.87;63.15;100253.53;6216088;23;864;-39
2021/12/25 01:50:19;;;;;;;;;;;;;;;18.73;63.52;100262.03;6215967;23;1958;-39
2021/12/25 01:52:47;;;;;;;;;;;;;;;18.83;63.64;100246.78;6216037;23;1076;-39
2021/12/25 01:55:21;;;;;;;;;;;;;;;18.85;63.50;100247.50;6215758;23;1125;-39
2021/12/25 01:57:48;;;;;;;;;;;;;;;18.78;63.48;100254.38;6216051;23;1068;-39
2021/12/25 02:00:17;;;;;;;;;;;;;;;18.74;63.46;100244.94;6215594;23;1134;-39
2021/12/25 02:02:54;;;;;;;;;;;;;;;18.89;63.75;100243.53;6215493;23;1111;-39
2021/12/25 02:05:26;;;;;;;;;;;;;;;18.83;63.51;100241.44;6215853;23;1018;-40
2021/12/25 02:07:54;;;;;;;;;;;;;;;18.73;63.54;100232.56;6215799;23;1446;-39
2021/12/25 02:10:36;;;;;;;;;;;;;;;18.85;62.73;100240.28;6215461;23;1897;-39
2021/12/25 02:13:04;;;;;;;;;;;;;;;18.84;62.88;100232.41;6215612;23;1062;-40
2021/12/25 02:15:31;;;;;;;;;;;;;;;18.84;63.61;100237.75;6215782;23;995;-39
2021/12/25 02:18:08;;;;;;;;;;;;;;;18.85;62.83;100234.09;6214982;23;1183;-39
2021/12/25 02:20:59;;;;;;;;;;;;;;;18.87;62.81;100232.13;6215755;23;986;-40
2021/12/25 02:23:26;;;;;;;;;;;;;;;18.88;62.62;100228.47;6215357;23;1058;-39
2021/12/25 02:25:57;;;;;;;;;;;;;;;18.84;63.22;100211.81;6215571;23;1063;-40
2021/12/25 02:28:25;;;;;;;;;;;;;;;18.77;63.31;100221.41;6215726;23;1095;-39
2021/12/25 02:30:54;;;;;;;;;;;;;;;18.79;62.94;100219.44;6215833;23;1897;-39
2021/12/25 02:33:20;;;;;;;;;;;;;;;18.83;63.15;100209.28;6215691;23;1042;-40
2021/12/25 02:35:55;;;;;;;;;;;;;;;18.74;63.22;100232.44;6215687;23;1124;-39
2021/12/25 02:38:23;;;;;;;;;;;;;;;18.73;63.41;100209.28;6215723;23;1030;-40
2021/12/25 02:43:31;;;;;;;;;;;;;;;18.72;63.77;100225.50;6215561;23;2313;-39
2021/12/25 02:46:04;;;;;;;;;;;;;;;18.78;63.42;100214.19;6215532;23;1087;-39
2021/12/25 02:48:31;;;;;;;;;;;;;;;18.76;63.54;100210.81;6216350;23;1010;-39
2021/12/25 02:51:04;;;;;;;;;;;;;;;18.90;62.59;100215.75;6217783;23;1940;-39
2021/12/25 02:53:31;;;;;;;;;;;;;;;18.87;62.56;100216.03;6217640;23;1068;-39
2021/12/25 02:56:07;;;;;;;;;;;;;;;18.82;63.11;100218.31;6217702;23;1029;-39
2021/12/25 02:58:33;;;;;;;;;;;;;;;18.87;62.58;100202.66;6217237;23;1153;-39
2021/12/25 03:01:05;;;;;;;;;;;;;;;18.83;63.02;100210.13;6176279;23;3589;-39
2021/12/25 03:03:44;;;;;;;;;;;;;;;19.06;62.96;100215.94;6097854;23;1019;-40
2021/12/25 03:06:16;;;;;;;;;;;;;;;18.94;62.69;100211.78;6096667;23;1062;-39
2021/12/25 03:08:44;;;;;;;;;;;;;;;18.72;62.90;100212.13;6098547;23;995;-39
2021/12/25 03:11:19;;;;;;;;;;;;;;;18.81;63.20;100219.31;6098580;23;1897;-39
2021/12/25 03:13:57;;;;;;;;;;;;;;;18.92;62.93;100221.81;6098628;23;1134;-39
2021/12/25 03:16:25;;;;;;;;;;;;;;;18.80;62.61;100225.66;6099134;23;1007;-39
2021/12/25 03:18:54;;;;;;;;;;;;;;;18.84;62.72;100232.41;6099079;23;1088;-39
2021/12/25 03:21:29;;;;;;;;;;;;;;;18.79;62.70;100234.66;6098785;23;1054;-39
2021/12/25 03:23:56;;;;;;;;;;;;;;;18.73;62.74;100228.03;6098535;23;1071;-39
2021/12/25 03:26:27;;;;;;;;;;;;;;;18.85;62.95;100234.09;6098697;23;1062;-39
2021/12/25 03:28:54;;;;;;;;;;;;;;;18.87;62.69;100226.75;6098399;23;1059;-39
2021/12/25 03:31:24;;;;;;;;;;;;;;;18.86;62.43;100239.31;6098797;23;1930;-39
2021/12/25 03:33:53;;;;;;;;;;;;;;;18.94;62.23;100232.34;6098613;23;1295;-39
2021/12/25 03:36:21;;;;;;;;;;;;;;;18.89;62.45;100238.16;6098878;23;1073;-39
2021/12/25 03:38:54;;;;;;;;;;;;;;;18.89;62.22;100240.84;6098337;23;1130;-39
2021/12/25 03:41:21;;;;;;;;;;;;;;;18.79;63.19;100251.59;6098434;23;1111;-41
2021/12/25 03:43:48;;;;;;;;;;;;;;;18.83;62.75;100246.78;6098600;23;1022;-39
2021/12/25 03:46:24;;;;;;;;;;;;;;;18.77;62.47;100236.63;6098211;23;1083;-39
2021/12/25 03:49:07;;;;;;;;;;;;;;;18.84;62.49;100243.97;6098231;23;1126;-39
2021/12/25 03:59:56;;;;;;;;;;;;;;;18.86;62.32;100246.47;6098004;23;699;-39
2021/12/25 04:02:42;;;;;;;;;;;;;;;18.82;62.10;100245.09;6097877;23;1331;-39
2021/12/25 04:05:16;;;;;;;;;;;;;;;18.91;63.19;100259.47;6098560;23;1023;-39
2021/12/25 04:08:01;;;;;;;;;;;;;;;18.84;62.18;100243.09;6098017;23;1939;-39
2021/12/25 04:10:36;;;;;;;;;;;;;;;18.84;62.61;100248.47;6098320;23;1897;-39
2021/12/25 04:13:04;;;;;;;;;;;;;;;18.94;61.86;100245.75;6098402;23;1056;-39
2021/12/25 04:15:38;;;;;;;;;;;;;;;18.98;61.84;100249.81;6098341;23;1070;-39
2021/12/25 04:18:05;;;;;;;;;;;;;;;18.98;62.15;100261.41;6098274;23;1168;-39
2021/12/25 04:23:23;;;;;;;;;;;;;;;18.87;61.92;100261.59;6098009;23;2286;-39
2021/12/25 04:25:56;;;;;;;;;;;;;;;18.77;62.20;100261.59;6098442;23;1019;-39
2021/12/25 04:28:39;;;;;;;;;;;;;;;18.85;62.54;100271.59;6097938;23;1114;-39
2021/12/25 04:31:27;;;;;;;;;;;;;;;18.88;61.88;100271.31;6098457;23;1893;-39
2021/12/25 05:02:09;;;;;;;;;;;;;;;18.95;62.10;100293.84;6039897;23;1463;-39
2021/12/25 05:04:42;;;;;;;;;;;;;;;18.94;62.20;100300.22;6040642;23;1085;-39
2021/12/25 05:07:10;;;;;;;;;;;;;;;18.91;62.44;100299.66;6040250;23;1035;-39
2021/12/25 05:09:37;;;;;;;;;;;;;;;18.91;62.39;100303.16;6039884;23;1091;-39
2021/12/25 05:12:05;;;;;;;;;;;;;;;18.93;63.00;100306.53;6040010;23;1893;-39
2021/12/25 05:14:32;;;;;;;;;;;;;;;19.04;61.79;100318.94;6040251;23;1185;-39
2021/12/25 05:17:03;;;;;;;;;;;;;;;18.97;61.94;100324.00;6037391;23;979;-39
2021/12/25 05:19:32;;;;;;;;;;;;;;;18.97;62.11;100329.38;6040279;23;999;-40
2021/12/25 05:21:58;;;;;;;;;;;;;;;18.91;62.21;100332.63;6040213;23;1031;-39
2021/12/25 05:24:27;;;;;;;;;;;;;;;18.96;62.23;100321.47;6040034;23;1055;-39
2021/12/25 05:26:57;;;;;;;;;;;;;;;18.91;62.01;100326.44;6040140;23;952;-39
2021/12/25 05:29:25;;;;;;;;;;;;;;;18.89;61.83;100337.28;6040245;23;996;-39
2021/12/25 05:31:59;;;;;;;;;;;;;;;18.93;61.57;100344.06;6040199;23;1901;-39
2021/12/25 05:34:42;;;;;;;;;;;;;;;18.87;62.32;100355.34;6040486;23;1008;-39
2021/12/25 05:37:16;;;;;;;;;;;;;;;18.84;62.57;100344.91;6039653;23;1068;-39
2021/12/25 05:39:49;;;;;;;;;;;;;;;18.88;62.60;100343.66;6039734;23;1060;-39
2021/12/25 05:42:16;;;;;;;;;;;;;;;18.90;61.97;100365.78;6039991;23;1091;-39
2021/12/25 05:44:44;;;;;;;;;;;;;;;18.95;61.67;100349.28;6039678;23;952;-39
2021/12/25 05:47:11;;;;;;;;;;;;;;;18.99;62.63;100354.19;6040262;23;1079;-39
2021/12/25 05:49:38;;;;;;;;;;;;;;;18.91;61.71;100355.91;6039931;23;1186;-39
2021/12/25 05:52:05;;;;;;;;;;;;;;;18.89;62.04;100353.38;6039007;23;1949;-39
2021/12/25 05:54:36;;;;;;;;;;;;;;;18.95;61.58;100362.66;6039666;23;1291;-39
2021/12/25 05:57:03;;;;;;;;;;;;;;;18.93;62.37;100365.50;6040162;23;1071;-39
2021/12/25 05:59:30;;;;;;;;;;;;;;;18.90;61.65;100357.75;6039641;23;1092;-39
2021/12/25 06:01:57;;;;;;;;;;;;;;;18.92;61.64;100366.50;6039545;23;1347;-39
2021/12/25 06:04:34;;;;;;;;;;;;;;;18.86;61.75;100349.16;6039929;23;1141;-39
2021/12/25 06:07:02;;;;;;;;;;;;;;;18.85;62.50;100368.03;6039602;23;1103;-39
2021/12/25 06:09:37;;;;;;;;;;;;;;;18.91;61.42;100355.91;6040030;23;1093;-39
2021/12/25 06:12:10;;;;;;;;;;;;;;;18.95;61.60;100360.81;6040100;23;1940;-39
2021/12/25 06:14:38;;;;;;;;;;;;;;;18.92;61.52;100363.81;6039889;23;1070;-39
2021/12/25 06:17:12;;;;;;;;;;;;;;;18.90;61.81;100367.59;6040032;23;2027;-39
2021/12/25 06:19:39;;;;;;;;;;;;;;;18.78;61.81;100356.19;6040171;23;1004;-39
2021/12/25 06:22:07;;;;;;;;;;;;;;;18.90;61.94;100355.06;6040285;23;1074;-39
2021/12/25 06:24:39;;;;;;;;;;;;;;;18.91;62.01;100362.09;6041842;23;1079;-39
2021/12/25 06:27:12;;;;;;;;;;;;;;;18.92;61.47;100358.47;6041656;23;1248;-39
2021/12/25 06:29:39;;;;;;;;;;;;;;;18.94;62.15;100361.84;6041685;23;1070;-39
2021/12/25 06:32:09;;;;;;;;;;;;;;;18.80;61.96;100359.59;6041433;23;1871;-39
2021/12/25 06:34:37;;;;;;;;;;;;;;;18.87;61.84;100361.53;6041425;23;1116;-39
2021/12/25 06:37:08;;;;;;;;;;;;;;;18.88;61.69;100365.09;6041699;23;1044;-39
2021/12/25 06:39:43;;;;;;;;;;;;;;;18.84;61.78;100360.97;6041715;23;1070;-40
2021/12/25 06:42:15;;;;;;;;;;;;;;;18.90;61.31;100365.78;6041069;23;1349;-39
2021/12/25 06:44:42;;;;;;;;;;;;;;;19.04;61.30;100383.25;6041054;23;1068;-39
2021/12/25 06:47:10;;;;;;;;;;;;;;;19.00;62.67;100377.31;6041693;23;1019;-39
2021/12/25 06:49:37;;;;;;;;;;;;;;;18.97;62.90;100372.25;6041483;23;1075;-39
2021/12/25 06:52:04;;;;;;;;;;;;;;;19.05;62.79;100375.03;6040983;23;1894;-40
2021/12/25 06:54:31;;;;;;;;;;;;;;;19.13;62.32;100382.34;6041467;23;1064;-39
2021/12/25 06:57:07;;;;;;;;;;;;;;;19.02;61.99;100388.75;6041564;23;1003;-39
2021/12/25 06:59:34;;;;;;;;;;;;;;;19.02;62.48;100390.56;6041094;23;1083;-39
2021/12/25 07:02:01;;;;;;;;;;;;;;;19.30;62.37;100382.56;6039895;23;1419;-39
2021/12/25 07:04:32;;;;;;;;;;;;;;;19.25;61.98;100383.88;6041427;23;1086;-39
2021/12/25 07:07:02;;;;;;;;;;;;;;;19.67;61.28;100387.91;6040871;23;1091;-39
2021/12/25 07:09:31;;;;;;;;;;;;;;;19.40;61.90;100384.25;6041042;23;1076;-39
2021/12/25 07:11:58;;;;;;;;;;;;;;;19.36;62.27;100379.31;6040924;23;1940;-39
2021/12/25 07:14:25;;;;;;;;;;;;;;;19.35;62.22;100385.66;6041436;23;996;-39
2021/12/25 07:17:06;;;;;;;;;;;;;;;19.37;61.93;100384.53;6040910;23;1082;-39
2021/12/25 07:19:48;;;;;;;;;;;;;;;19.37;62.17;100378.31;6040676;23;1116;-39
2021/12/25 07:22:15;;;;;;;;;;;;;;;19.37;62.49;100372.97;6040934;23;1177;-40
2021/12/25 07:24:42;;;;;;;;;;;;;;;19.59;61.46;100372.56;6040539;23;1144;-39
2021/12/25 07:29:49;;;;;;;;;;;;;;;19.41;61.70;100380.56;6040201;23;1657;-39
2021/12/25 07:32:39;;;;;;;;;;;;;;;19.64;60.33;100390.91;6040057;23;1902;-40
2021/12/25 07:38:02;;;;;;;;;;;;;;;19.69;61.23;100404.72;6040117;23;1573;-40
2021/12/25 07:40:29;;;;;;;;;;;;;;;19.70;60.96;100401.06;6039415;23;1128;-39
2021/12/25 07:42:55;;;;;;;;;;;;;;;19.48;62.03;100407.66;6038941;23;1067;-39
2021/12/25 07:45:22;;;;;;;;;;;;;;;19.57;62.13;100416.63;6040849;23;1083;-40
2021/12/25 07:47:56;;;;;;;;;;;;;;;19.54;61.64;100401.69;6040627;23;1092;-39
2021/12/25 07:50:27;;;;;;;;;;;;;;;19.46;62.19;100415.84;6041060;23;1035;-40
2021/12/25 07:52:54;;;;;;;;;;;;;;;19.45;62.78;100413.28;6040301;23;1948;-39
2021/12/25 07:55:42;;;;;;;;;;;;;;;19.48;61.77;100418.38;6040896;23;1078;-39
2021/12/25 07:58:11;;;;;;;;;;;;;;;19.48;62.44;100421.91;6036042;23;1069;-39
2021/12/25 08:00:38;;;;;;;;;;;;;;;19.50;61.59;100431.63;6020349;23;1063;-39
2021/12/25 08:03:04;;;;;;;;;;;;;;;19.53;61.68;100429.50;6038643;23;1406;-39
2021/12/25 08:05:34;;;;;;;;;;;;;;;19.51;62.22;100433.31;6040277;23;1148;-41
2021/12/25 08:08:03;;;;;;;;;;;;;;;19.35;63.06;100433.94;6040910;23;1031;-39
2021/12/25 08:10:31;;;;;;;;;;;;;;;19.24;63.52;100432.28;6040297;23;1922;-39
2021/12/25 08:12:58;;;;;;;;;;;;;;;19.35;62.85;100431.25;6039458;23;1932;-40
2021/12/25 08:15:26;;;;;;;;;;;;;;;19.36;62.61;100433.78;6039074;23;1104;-39
2021/12/25 08:17:55;;;;;;;;;;;;;;;19.28;63.66;100431.00;6039884;23;1068;-40
2021/12/25 08:20:22;;;;;;;;;;;;;;;19.27;62.85;100438.19;6040333;23;1124;-39
2021/12/25 08:22:50;;;;;;;;;;;;;;;19.19;63.37;100427.34;6039666;23;1139;-40
2021/12/25 08:25:17;;;;;;;;;;;;;;;19.22;64.03;100435.09;6040437;23;996;-40
2021/12/25 08:27:45;;;;;;;;;;;;;;;19.32;63.33;100429.72;6039684;23;1136;-40
2021/12/25 08:30:15;;;;;;;;;;;;;;;19.15;63.48;100449.22;6039505;23;1007;-40
2021/12/25 08:32:42;;;;;;;;;;;;;;;19.04;64.99;100451.09;6040465;23;1936;-39
2021/12/25 08:35:13;;;;;;;;;;;;;;;18.86;64.53;100436.69;6038385;23;1008;-40
2021/12/25 08:37:40;;;;;;;;;;;;;;;18.63;65.02;100450.38;6039881;23;1000;-40
2021/12/25 08:40:10;;;;;;;;;;;;;;;18.49;64.36;100448.94;6037530;23;1019;-39
2021/12/25 08:42:36;;;;;;;;;;;;;;;18.50;63.82;100441.75;6037367;23;1079;-40
2021/12/25 08:45:10;;;;;;;;;;;;;;;18.54;63.59;100431.59;6036379;23;1309;-40
2021/12/25 08:47:37;;;;;;;;;;;;;;;18.52;62.91;100431.75;6038134;23;1083;-40
2021/12/25 08:50:05;;;;;;;;;;;;;;;18.51;63.18;100427.38;6040481;23;1004;-40
2021/12/25 08:52:32;;;;;;;;;;;;;;;18.31;64.50;100418.50;6040299;23;1944;-39
2021/12/25 08:54:59;;;;;;;;;;;;;;;18.23;64.13;100427.22;6039213;23;1063;-40
2021/12/25 08:57:26;;;;;;;;;;;;;;;18.17;65.32;100418.91;6039474;23;1122;-40
2021/12/25 08:59:55;;;;;;;;;;;;;;;18.14;65.07;100425.38;6040373;23;1070;-39
2021/12/25 09:02:22;;;;;;;;;;;;;;;18.11;64.82;100439.03;6039837;23;1317;-39
2021/12/25 09:04:50;;;;;;;;;;;;;;;18.04;64.84;100429.84;6040694;23;1066;-40
2021/12/25 09:07:16;;;;;;;;;;;;;;;18.06;64.78;100438.59;6039976;23;1061;-40
2021/12/25 09:09:43;;;;;;;;;;;;;;;17.99;64.95;100429.44;6040241;23;1000;-39
2021/12/25 09:12:12;;;;;;;;;;;;;;;17.95;65.19;100418.16;6040215;23;1898;-40
2021/12/25 09:14:40;;;;;;;;;;;;;;;17.91;65.34;100394.50;6040134;23;1028;-40
2021/12/25 09:17:07;;;;;;;;;;;;;;;17.88;65.47;100396.44;6039727;23;1064;-40
2021/12/25 09:19:34;;;;;;;;;;;;;;;17.86;65.74;100411.78;6040235;23;1083;-40
2021/12/25 09:22:00;;;;;;;;;;;;;;;17.79;65.36;100407.13;6039864;23;1104;-39
2021/12/25 09:24:27;;;;;;;;;;;;;;;17.79;65.13;100407.94;6040166;23;1074;-39
2021/12/25 09:26:53;;;;;;;;;;;;;;;17.80;65.33;100414.13;6040080;23;1066;-39
2021/12/25 09:29:20;;;;;;;;;;;;;;;17.74;65.46;100393.28;6039771;23;1144;-39
2021/12/25 09:31:47;;;;;;;;;;;;;;;17.76;65.38;100396.66;6039731;23;1897;-40
2021/12/25 09:34:14;;;;;;;;;;;;;;;17.70;65.76;100387.38;6040476;23;1028;-39
2021/12/25 09:36:40;;;;;;;;;;;;;;;17.70;65.89;100376.66;6040202;23;1062;-39
2021/12/25 09:39:07;;;;;;;;;;;;;;;17.69;65.60;100375.81;6040184;23;1022;-39
2021/12/25 09:41:34;;;;;;;;;;;;;;;17.70;65.52;100387.38;6039777;23;1063;-40
2021/12/25 09:44:01;;;;;;;;;;;;;;;17.77;65.28;100361.78;6040116;23;999;-40
2021/12/25 09:46:27;;;;;;;;;;;;;;;17.84;64.86;100373.63;6040042;23;1052;-40
2021/12/25 09:48:55;;;;;;;;;;;;;;;17.95;65.33;100374.53;6039952;23;1076;-39
2021/12/25 09:51:22;;;;;;;;;;;;;;;17.96;64.88;100371.69;6039650;23;1242;-40
2021/12/25 09:53:55;;;;;;;;;;;;;;;17.92;65.20;100377.47;6039562;23;1893;-39
2021/12/25 09:56:21;;;;;;;;;;;;;;;17.87;64.88;100380.56;6039611;23;1145;-39
2021/12/25 09:58:48;;;;;;;;;;;;;;;17.83;65.20;100369.28;6039511;23;1130;-40
2021/12/25 10:01:31;;;;;;;;;;;;;;;17.80;65.79;100366.00;6039260;23;1321;-41
2021/12/25 10:04:00;;;;;;;;;;;;;;;17.76;65.58;100365.41;6040278;23;1008;-39
2021/12/25 10:06:30;;;;;;;;;;;;;;;17.70;65.89;100371.31;6040161;23;1072;-40
2021/12/25 10:08:57;;;;;;;;;;;;;;;17.63;65.74;100365.69;6039686;23;1066;-39
2021/12/25 10:11:25;;;;;;;;;;;;;;;17.64;65.97;100369.19;6039484;23;1019;-39
2021/12/25 10:13:54;;;;;;;;;;;;;;;17.61;65.99;100367.66;6039788;23;1939;-39
2021/12/25 10:16:22;;;;;;;;;;;;;;;17.61;66.12;100350.75;6039496;23;1118;-40
2021/12/25 10:18:50;;;;;;;;;;;;;;;17.62;66.02;100363.13;6039510;23;1154;-39
2021/12/25 10:21:20;;;;;;;;;;;;;;;17.61;65.94;100356.09;6039692;23;1056;-40
2021/12/25 10:24:02;;;;;;;;;;;;;;;17.62;65.71;100357.78;6039734;23;1111;-39
2021/12/25 10:26:28;;;;;;;;;;;;;;;17.69;65.73;100358.94;6039543;23;1096;-41
2021/12/25 10:28:54;;;;;;;;;;;;;;;17.67;65.95;100336.84;6040036;23;1182;-39
2021/12/25 10:31:29;;;;;;;;;;;;;;;17.75;65.86;100331.66;6039341;23;1138;-39
2021/12/25 10:33:56;;;;;;;;;;;;;;;17.77;65.65;100337.72;6039650;23;1937;-40
2021/12/25 10:36:28;;;;;;;;;;;;;;;17.77;65.65;100334.19;6039935;23;1011;-39
2021/12/25 10:38:59;;;;;;;;;;;;;;;17.76;65.45;100333.31;6039807;23;1046;-39
2021/12/25 10:41:25;;;;;;;;;;;;;;;17.77;65.45;100329.69;6039303;23;1134;-40
2021/12/25 10:43:53;;;;;;;;;;;;;;;17.82;65.40;100332.75;6039638;23;1067;-40
2021/12/25 10:46:20;;;;;;;;;;;;;;;17.77;65.67;100324.34;6040027;23;1058;-40
2021/12/25 10:48:46;;;;;;;;;;;;;;;17.77;65.52;100329.69;6040027;23;1055;-40
2021/12/25 10:51:23;;;;;;;;;;;;;;;17.73;65.34;100328.28;6039443;23;1091;-39
2021/12/25 10:53:53;;;;;;;;;;;;;;;17.78;65.60;100331.34;6039533;23;1941;-41
2021/12/25 10:56:20;;;;;;;;;;;;;;;17.70;65.67;100307.97;6039747;23;1027;-39
2021/12/25 10:58:47;;;;;;;;;;;;;;;17.72;65.58;100317.69;6039340;23;1110;-40
2021/12/25 11:01:14;;;;;;;;;;;;;;;17.76;65.68;100333.31;6039072;23;1321;-40
2021/12/25 11:03:42;;;;;;;;;;;;;;;17.74;65.34;100316.56;6039923;23;1043;-39
2021/12/25 11:06:10;;;;;;;;;;;;;;;17.72;65.54;100315.88;6039728;23;1007;-40
2021/12/25 11:08:37;;;;;;;;;;;;;;;17.71;65.38;100324.88;6039258;23;1116;-39
2021/12/25 11:11:06;;;;;;;;;;;;;;;17.74;65.25;100316.56;6041337;23;1051;-39
2021/12/25 11:13:34;;;;;;;;;;;;;;;17.76;65.40;100316.44;6041470;23;1901;-40
2021/12/25 11:16:04;;;;;;;;;;;;;;;17.76;65.37;100314.59;6041654;23;1024;-40
2021/12/25 11:18:32;;;;;;;;;;;;;;;17.74;65.48;100323.75;6040851;23;1116;-40
2021/12/25 11:20:59;;;;;;;;;;;;;;;17.80;65.17;100328.56;6041429;23;992;-40
2021/12/25 11:23:28;;;;;;;;;;;;;;;17.74;65.78;100305.88;6040992;23;1139;-40
2021/12/25 11:25:54;;;;;;;;;;;;;;;17.72;65.58;100312.34;6040948;23;1072;-39
2021/12/25 11:28:22;;;;;;;;;;;;;;;17.72;65.45;100315.03;6041470;23;1066;-40
2021/12/25 11:30:50;;;;;;;;;;;;;;;17.74;65.56;100316.56;6041115;23;1059;-39
2021/12/25 11:33:17;;;;;;;;;;;;;;;17.73;65.38;100309.56;6041016;23;1897;-39
2021/12/25 11:35:43;;;;;;;;;;;;;;;17.69;65.43;100313.47;6041371;23;1067;-40
2021/12/25 11:38:10;;;;;;;;;;;;;;;17.65;65.68;100298.69;6041513;23;1067;-39
2021/12/25 11:40:41;;;;;;;;;;;;;;;17.67;65.52;100304.75;6041030;23;1063;-39
2021/12/25 11:43:07;;;;;;;;;;;;;;;17.62;65.78;100288.25;6041070;23;995;-39
2021/12/25 11:45:37;;;;;;;;;;;;;;;17.62;65.38;100304.31;6041003;23;996;-39
2021/12/25 11:48:12;;;;;;;;;;;;;;;17.62;65.53;100294.44;6040660;23;1052;-40
2021/12/25 11:50:41;;;;;;;;;;;;;;;17.63;65.27;100300.66;6041160;23;1003;-41
2021/12/25 11:53:15;;;;;;;;;;;;;;;17.66;65.48;100293.19;6040786;23;1934;-40
2021/12/25 11:56:13;;;;;;;;;;;;;;;17.68;65.65;100306.44;6041191;23;1051;-40
2021/12/25 11:58:39;;;;;;;;;;;;;;;17.54;66.04;100306.81;6040696;23;1753;-40
2021/12/25 12:01:20;;;;;;;;;;;;;;;17.48;66.06;100311.72;6041008;23;1328;-40
2021/12/25 12:03:52;;;;;;;;;;;;;;;17.45;66.14;100313.84;6037344;23;2585;-39
2021/12/25 12:06:19;;;;;;;;;;;;;;;17.42;66.06;100314.94;6040893;23;1031;-40
2021/12/25 12:09:01;;;;;;;;;;;;;;;17.43;66.00;100331.84;6040335;23;1076;-40
2021/12/25 12:11:29;;;;;;;;;;;;;;;17.43;65.53;100310.47;6040935;23;1104;-39
2021/12/25 12:14:10;;;;;;;;;;;;;;;17.38;66.17;100307.34;6040784;23;1897;-40
2021/12/25 12:16:37;;;;;;;;;;;;;;;17.34;66.23;100317.47;6040280;23;1662;-40
2021/12/25 12:19:05;;;;;;;;;;;;;;;17.34;66.16;100303.25;6040647;23;1518;-39
2021/12/25 12:21:37;;;;;;;;;;;;;;;17.30;66.17;100316.88;6040373;23;1080;-39
2021/12/25 12:24:47;;;;;;;;;;;;;;;17.28;66.33;100309.97;6040785;23;1007;-39
2021/12/25 12:27:30;;;;;;;;;;;;;;;17.27;66.43;100321.66;5953630;24;1067;-39
2021/12/25 12:29:57;;;;;;;;;;;;;;;17.27;66.34;100316.31;6037138;23;1063;-39
2021/12/25 12:32:43;;;;;;;;;;;;;;;17.33;66.25;100312.25;6040799;23;1067;-39
2021/12/25 12:35:24;;;;;;;;;;;;;;;17.39;66.23;100309.88;6040694;23;1048;-40
2021/12/25 12:37:52;;;;;;;;;;;;;;;17.35;66.26;100308.47;6040097;23;2657;-39
2021/12/25 12:40:21;;;;;;;;;;;;;;;17.38;65.83;100302.00;6040512;23;1183;-40
2021/12/25 12:42:51;;;;;;;;;;;;;;;17.27;66.36;100295.78;6040040;23;1060;-39
2021/12/25 12:45:19;;;;;;;;;;;;;;;17.32;66.20;100318.59;6040573;23;1016;-39
2021/12/25 12:48:07;;;;;;;;;;;;;;;17.24;66.63;100311.25;6040371;23;1060;-39
2021/12/25 12:50:34;;;;;;;;;;;;;;;17.21;66.43;100320.38;6040571;23;1074;-41
2021/12/25 12:53:02;;;;;;;;;;;;;;;17.24;66.33;100305.91;6040334;23;1885;-39
2021/12/25 12:55:30;;;;;;;;;;;;;;;17.22;66.26;100313.19;6039941;23;959;-39
2021/12/25 12:58:07;;;;;;;;;;;;;;;17.21;66.60;100316.84;6039963;23;1160;-39
2021/12/25 13:00:33;;;;;;;;;;;;;;;17.26;66.43;100301.25;6040342;23;1082;-39
2021/12/25 13:03:00;;;;;;;;;;;;;;;17.32;66.13;100308.72;6039711;23;1225;-39
2021/12/25 13:05:31;;;;;;;;;;;;;;;17.30;66.17;100310.69;6040647;23;1063;-39
2021/12/25 13:08:00;;;;;;;;;;;;;;;17.36;66.08;100306.63;6040141;23;1092;-39
2021/12/25 13:10:34;;;;;;;;;;;;;;;17.36;65.83;100306.63;6039934;23;1079;-39
2021/12/25 13:13:09;;;;;;;;;;;;;;;17.32;66.15;100302.56;6040929;23;1941;-40
2021/12/25 13:15:35;;;;;;;;;;;;;;;17.38;65.93;100310.84;6041631;23;1074;-40
2021/12/25 13:18:02;;;;;;;;;;;;;;;17.35;66.12;100303.13;6041168;23;1134;-40
2021/12/25 13:20:33;;;;;;;;;;;;;;;17.37;66.14;100319.88;6040648;23;1071;-39
2021/12/25 13:23:00;;;;;;;;;;;;;;;17.38;66.04;100329.56;6040145;23;1135;-40
2021/12/25 13:25:28;;;;;;;;;;;;;;;17.29;66.09;100315.19;6040229;23;1063;-40
2021/12/25 13:27:56;;;;;;;;;;;;;;;17.27;66.16;100327.03;6039803;23;1116;-39
2021/12/25 13:30:22;;;;;;;;;;;;;;;17.25;66.74;100323.63;6039739;23;1147;-39
2021/12/25 13:32:49;;;;;;;;;;;;;;;17.20;66.38;100331.19;6039878;23;1071;-39
2021/12/25 13:35:16;;;;;;;;;;;;;;;17.19;66.50;100329.50;6040486;23;1897;-40
2021/12/25 13:37:43;;;;;;;;;;;;;;;17.23;66.11;100318.41;6039955;23;1017;-40
2021/12/25 13:40:10;;;;;;;;;;;;;;;17.25;66.37;100329.81;6040099;23;1079;-39
2021/12/25 13:42:38;;;;;;;;;;;;;;;17.19;66.46;100330.34;6039849;23;1089;-39
2021/12/25 13:45:04;;;;;;;;;;;;;;;17.20;66.38;100320.50;6039934;23;1072;-39
2021/12/25 13:47:33;;;;;;;;;;;;;;;17.16;66.27;100324.44;6039903;23;1019;-39
2021/12/25 13:50:02;;;;;;;;;;;;;;;17.10;66.51;100320.47;6040481;23;1083;-39
2021/12/25 13:52:31;;;;;;;;;;;;;;;17.06;66.55;100311.88;6039916;23;1019;-39
2021/12/25 13:55:00;;;;;;;;;;;;;;;17.07;66.47;100326.09;6039850;23;1898;-39
2021/12/25 13:57:27;;;;;;;;;;;;;;;17.06;66.55;100314.53;6039867;23;1075;-40
2021/12/25 13:59:56;;;;;;;;;;;;;;;17.03;66.77;100313.94;6039453;23;1092;-40
2021/12/25 14:02:23;;;;;;;;;;;;;;;17.01;66.62;100311.44;6039747;23;1418;-39
2021/12/25 14:04:51;;;;;;;;;;;;;;;17.14;66.33;100316.53;6040342;23;1228;-39
2021/12/25 14:07:20;;;;;;;;;;;;;;;17.16;66.18;100311.91;6039879;23;1015;-39
2021/12/25 14:09:52;;;;;;;;;;;;;;;17.13;66.14;100319.34;6039650;23;1063;-39
2021/12/25 14:12:21;;;;;;;;;;;;;;;17.15;66.25;100314.72;6039764;23;1102;-39